Richland Center, WI (53581)

2:52 PM CDT on July 24, 2016 (GMT -0500)
KWIRICHL5 | | Change Station

Elev 741 ft 43.33 °N, 90.39 °W | Updated 3 minutes ago

Mostly Cloudy
Mostly Cloudy
89.9 °F
Feels Like 102 °F
N
5.0
Wind Variable Wind from NNW
Gusts 10.0 mph

Today
High -- | Low -- °F
--% Chance of Precip.
Yesterday
High -- | Low -- °F
Precip. -- in
Pressure 29.84 in
Visibility -9999.0 miles
Clouds Mostly Cloudy 2100 ft
Mostly Cloudy 2800 ft
Mostly Cloudy 3900 ft
Heat Index 102 °F
Dew Point 76 °F
Humidity 65%
Rainfall 0.00 in
Snow Depth Not available.
5:43 AM 8:31 PM
Waning Gibbous, 73% visible
SPECI KLNR 241932Z AUTO 31005KT BKN021 BKN028 BKN039 32/26 A2984 RMK AO2 T03170261
Pressure 29.84 in
Visibility -9999.0 miles
Clouds Mostly Cloudy 2100 ft
Mostly Cloudy 2800 ft
Mostly Cloudy 3900 ft
Heat Index 102 °F
Dew Point 76 °F
Humidity 65%
Rainfall 0.00 in
Snow Depth Not available.
5:43 AM 8:31 PM
Waning Gibbous, 73% visible
SPECI KLNR 241932Z AUTO 31005KT BKN021 BKN028 BKN039 32/26 A2984 RMK AO2 T03170261

10-Day Weather Forecast

Almanac

Astronomy

Jul. 24, 2016 Rise Set
Actual Time
Civil Twilight
Nautical Twilight
Astronomical Twilight
Moon
Length of Visible Light
Length of Day
Tomorrow will be .
, % of the Moon is Illuminated

Today's Extremes

State Highs State Lows

Community

WunderPhotos

Upload Photos

1,927,176 photos uploaded!

WunderBlog® & News

Nearby

Air Quality

  Air Quality AQ Index Pollutant
Not available.

Snow Depth

Station Depth Elevation

Earthquake Activity

City Distance Mag. Time & Date
Minimum magnitude displayed is 2.5.

Coastal Water Temperatures

Place Temperature

Stations

Nearby Weather Stations

Station Location Temp. Windchill Dew Point Humidity Wind Precip. Elev Updated Type
                   

Watches & Warnings

There are currently no watches in effect.